createdAt,value
2022-09-15T00:00:10.280Z,0.90
2022-09-15T00:02:36.776Z,0.93
2022-09-15T00:05:03.337Z,1.02
2022-09-15T00:07:31.266Z,1.00
2022-09-15T00:09:57.673Z,1.00
2022-09-15T00:12:24.086Z,1.00
2022-09-15T00:14:50.515Z,1.10
2022-09-15T00:17:16.987Z,0.88
2022-09-15T00:19:43.397Z,1.00
2022-09-15T00:22:09.810Z,1.00
2022-09-15T00:24:36.352Z,1.00
2022-09-15T00:27:03.287Z,0.80
2022-09-15T00:29:29.994Z,0.90
2022-09-15T00:31:56.423Z,0.98
2022-09-15T00:34:22.885Z,1.38
2022-09-15T00:36:49.439Z,0.90
2022-09-15T00:39:15.863Z,0.90
2022-09-15T00:41:42.559Z,0.90
2022-09-15T00:44:36.763Z,1.00
2022-09-15T00:47:18.706Z,0.90
2022-09-15T00:49:47.656Z,0.80
2022-09-15T00:52:47.280Z,0.82
2022-09-15T00:55:23.956Z,0.82
2022-09-15T00:58:18.888Z,1.05
2022-09-15T01:00:50.612Z,0.90
2022-09-15T01:03:18.296Z,1.20
2022-09-15T01:05:53.980Z,0.93
2022-09-15T01:08:50.039Z,1.38
2022-09-15T01:11:16.977Z,1.00
2022-09-15T01:13:44.334Z,1.02
2022-09-15T01:16:27.440Z,1.17
2022-09-15T01:19:04.416Z,0.98
2022-09-15T01:21:54.592Z,1.05
2022-09-15T01:24:38.195Z,1.40
2022-09-15T01:27:41.690Z,1.42
2022-09-15T01:30:10.171Z,1.90
2022-09-15T01:33:03.894Z,1.90
2022-09-15T01:35:34.211Z,1.83
2022-09-15T01:38:29.827Z,2.30
2022-09-15T01:41:05.768Z,2.20
2022-09-15T01:43:35.603Z,2.80
2022-09-15T01:46:02.814Z,2.40
2022-09-15T01:48:30.091Z,2.00
2022-09-15T01:51:00.077Z,1.90
2022-09-15T01:53:27.067Z,1.75
2022-09-15T01:55:57.942Z,1.60
2022-09-15T01:58:24.493Z,1.92
2022-09-15T02:00:59.923Z,1.50
2022-09-15T02:03:55.471Z,1.75
2022-09-15T02:06:29.604Z,1.77
2022-09-15T02:09:01.341Z,1.80
2022-09-15T02:11:28.846Z,2.00
2022-09-15T02:14:00.567Z,2.05
2022-09-15T02:16:29.977Z,2.45
2022-09-15T02:19:09.615Z,1.85
2022-09-15T02:22:02.756Z,2.22
2022-09-15T02:24:32.591Z,2.53
2022-09-15T02:26:59.582Z,2.45
2022-09-15T02:29:27.338Z,2.67
2022-09-15T02:31:55.513Z,2.95
2022-09-15T02:34:29.378Z,3.28
2022-09-15T02:36:56.604Z,3.88
2022-09-15T02:39:27.193Z,4.32
2022-09-15T02:41:53.672Z,5.72
2022-09-15T02:44:20.077Z,6.32
2022-09-15T02:46:46.543Z,7.65
2022-09-15T02:49:14.116Z,7.10
2022-09-15T02:51:40.648Z,6.85
2022-09-15T02:54:07.074Z,5.60
2022-09-15T02:56:33.884Z,5.97
2022-09-15T02:59:00.288Z,4.03
2022-09-15T03:01:33.686Z,5.47
2022-09-15T03:04:01.875Z,3.72
2022-09-15T03:06:34.564Z,4.22
2022-09-15T03:09:05.317Z,4.53
2022-09-15T03:11:32.596Z,3.83
2022-09-15T03:14:01.325Z,4.40
2022-09-15T03:16:29.076Z,3.85
2022-09-15T03:18:58.617Z,3.60
2022-09-15T03:21:26.281Z,3.50
2022-09-15T03:23:52.699Z,3.17
2022-09-15T03:26:19.133Z,3.47
2022-09-15T03:28:45.551Z,2.22
2022-09-15T03:31:12.192Z,1.83
2022-09-15T03:33:38.707Z,1.77
2022-09-15T03:36:06.825Z,2.28
2022-09-15T03:38:33.308Z,1.75
2022-09-15T03:41:08.259Z,2.47
2022-09-15T03:43:35.375Z,2.40
2022-09-15T03:46:02.140Z,2.42
2022-09-15T03:48:31.489Z,2.70
2022-09-15T03:53:24.642Z,2.38
2022-09-15T03:55:51.295Z,3.17
2022-09-15T03:58:18.491Z,3.28
2022-09-15T04:00:46.425Z,2.90
2022-09-15T04:03:13.545Z,2.70
2022-09-15T04:05:40.526Z,2.72
2022-09-15T04:08:06.954Z,3.00
2022-09-15T04:10:33.565Z,2.47
2022-09-15T04:12:59.982Z,2.58
2022-09-15T04:15:26.405Z,1.75
2022-09-15T04:17:52.813Z,1.20
2022-09-15T04:20:19.246Z,1.27
2022-09-15T04:22:45.745Z,1.10
2022-09-15T04:25:12.186Z,1.00
2022-09-15T04:27:38.668Z,0.85
2022-09-15T04:30:06.468Z,1.05
2022-09-15T04:32:33.155Z,0.60
2022-09-15T04:34:59.557Z,0.75
2022-09-15T04:37:25.965Z,0.80
2022-09-15T04:39:52.455Z,1.13
2022-09-15T04:42:21.935Z,0.80
2022-09-15T04:44:48.341Z,1.20
2022-09-15T04:47:14.912Z,1.00
2022-09-15T04:49:41.325Z,0.68
2022-09-15T04:52:09.941Z,0.60
2022-09-15T04:54:36.706Z,0.80
2022-09-15T04:57:03.145Z,0.77
2022-09-15T04:59:29.572Z,0.75
2022-09-15T05:01:56.108Z,0.80
2022-09-15T05:04:22.598Z,1.20
2022-09-15T05:06:48.990Z,1.30
2022-09-15T05:09:15.403Z,1.40
2022-09-15T05:11:41.828Z,1.30
2022-09-15T05:14:09.540Z,1.60
2022-09-15T05:16:36.096Z,1.35
2022-09-15T05:19:03.164Z,1.23
2022-09-15T05:21:29.651Z,1.17
2022-09-15T05:23:56.179Z,1.13
2022-09-15T05:26:29.308Z,1.02
2022-09-15T05:28:56.915Z,1.25
2022-09-15T05:31:26.676Z,1.00
2022-09-15T05:33:53.551Z,1.13
2022-09-15T05:36:24.880Z,0.98
2022-09-15T05:38:52.990Z,0.90
2022-09-15T05:41:19.811Z,0.90
2022-09-15T05:43:47.173Z,1.15
2022-09-15T05:46:14.104Z,1.10
2022-09-15T05:48:40.636Z,1.10
2022-09-15T05:51:07.762Z,1.20
2022-09-15T05:53:35.238Z,1.52
2022-09-15T05:56:05.078Z,2.00
2022-09-15T05:58:32.015Z,2.30
2022-09-15T06:01:11.331Z,2.53
2022-09-15T06:03:37.727Z,2.55
2022-09-15T06:06:06.130Z,2.60
2022-09-15T06:08:37.747Z,2.70
2022-09-15T06:11:15.874Z,2.80
2022-09-15T06:13:42.661Z,3.17
2022-09-15T06:16:11.882Z,3.42
2022-09-15T06:21:13.926Z,3.08
2022-09-15T06:23:40.707Z,3.00
2022-09-15T06:26:15.244Z,2.63
2022-09-15T06:28:42.439Z,2.72
2022-09-15T06:31:13.378Z,3.40
2022-09-15T06:33:44.518Z,2.70
2022-09-15T06:36:15.095Z,3.00
2022-09-15T06:38:42.806Z,3.00
2022-09-15T06:41:09.826Z,2.80
2022-09-15T06:43:36.384Z,3.10
2022-09-15T06:46:12.319Z,3.15
2022-09-15T06:48:39.544Z,3.58
2022-09-15T06:51:07.338Z,3.30
2022-09-15T06:53:35.426Z,3.67
2022-09-15T06:56:07.317Z,3.80
2022-09-15T06:58:38.754Z,3.85
2022-09-15T07:01:12.196Z,3.50
2022-09-15T07:03:40.449Z,3.70
2022-09-15T07:06:07.578Z,3.97
2022-09-15T07:08:34.596Z,4.80
2022-09-15T07:11:00.997Z,3.78
2022-09-15T07:13:27.460Z,3.63
2022-09-15T07:15:56.438Z,4.13
2022-09-15T07:18:23.392Z,4.28
2022-09-15T07:20:50.428Z,4.35
2022-09-15T07:23:18.215Z,3.88
2022-09-15T07:25:45.141Z,3.90
2022-09-15T07:28:12.268Z,3.60
2022-09-15T07:30:39.212Z,3.85
2022-09-15T07:33:06.749Z,3.50
2022-09-15T07:35:33.296Z,3.90
2022-09-15T07:38:00.879Z,3.40
2022-09-15T07:40:28.880Z,3.60
2022-09-15T07:42:55.900Z,3.75
2022-09-15T07:45:22.399Z,3.88
2022-09-15T07:47:48.886Z,3.33
2022-09-15T07:50:15.307Z,3.50
2022-09-15T07:52:41.770Z,3.90
2022-09-15T07:55:09.424Z,3.50
2022-09-15T07:57:35.860Z,3.78
2022-09-15T08:00:02.695Z,3.58
2022-09-15T08:02:38.406Z,3.47
2022-09-15T08:05:05.033Z,3.83
2022-09-15T08:07:31.436Z,3.00
2022-09-15T08:09:57.851Z,3.58
2022-09-15T08:12:24.252Z,3.20
2022-09-15T08:14:50.680Z,3.17
2022-09-15T08:17:17.112Z,4.10
2022-09-15T08:19:43.653Z,3.15
2022-09-15T08:22:10.066Z,3.45
2022-09-15T08:24:37.309Z,3.55
2022-09-15T08:27:03.847Z,2.28
2022-09-15T08:29:30.349Z,2.25
2022-09-15T08:31:56.823Z,1.88
2022-09-15T08:34:23.614Z,2.00
2022-09-15T08:36:50.035Z,1.70
2022-09-15T08:39:16.414Z,1.90
2022-09-15T08:41:47.086Z,1.98
2022-09-15T08:44:44.275Z,1.70
2022-09-15T08:47:20.984Z,2.15
2022-09-15T08:50:05.131Z,1.85
2022-09-15T08:52:44.101Z,1.63
2022-09-15T08:55:18.199Z,1.70
2022-09-15T08:57:45.017Z,1.70
2022-09-15T09:00:16.340Z,1.60
2022-09-15T09:03:04.658Z,1.52
2022-09-15T09:05:50.570Z,1.67
2022-09-15T09:09:02.174Z,1.80
2022-09-15T09:11:56.929Z,1.77
2022-09-15T09:14:42.676Z,1.73
2022-09-15T09:17:37.327Z,2.17
2022-09-15T09:20:32.180Z,2.08
2022-09-15T09:23:00.085Z,1.98
2022-09-15T09:25:28.213Z,1.85
2022-09-15T09:27:58.296Z,2.00
2022-09-15T09:30:27.548Z,2.10
2022-09-15T09:35:28.670Z,1.95
2022-09-15T09:37:55.564Z,2.72
2022-09-15T09:40:22.659Z,2.20
2022-09-15T09:42:49.211Z,2.25
2022-09-15T09:45:18.300Z,2.30
2022-09-15T09:47:46.214Z,2.10
2022-09-15T09:50:51.125Z,2.40
2022-09-15T09:53:24.135Z,2.42
2022-09-15T09:55:50.585Z,2.00
2022-09-15T09:58:22.540Z,2.05
2022-09-15T10:00:49.297Z,2.15
2022-09-15T10:03:17.578Z,1.90
2022-09-15T10:05:44.801Z,2.08
2022-09-15T10:08:19.207Z,2.22
2022-09-15T10:11:00.528Z,1.50
2022-09-15T10:13:27.056Z,2.05
2022-09-15T10:15:55.589Z,2.17
2022-09-15T10:18:28.170Z,2.05
2022-09-15T10:20:54.756Z,2.20
2022-09-15T10:23:21.653Z,1.90
2022-09-15T10:25:59.070Z,2.13
2022-09-15T10:28:27.237Z,1.88
2022-09-15T10:31:13.336Z,1.67
2022-09-15T10:33:44.922Z,1.92
2022-09-15T10:36:17.236Z,1.60
2022-09-15T10:38:46.343Z,1.90
2022-09-15T10:41:25.983Z,1.42
2022-09-15T10:44:18.070Z,1.73
2022-09-15T10:47:01.028Z,2.15
2022-09-15T10:49:57.122Z,1.98
2022-09-15T10:52:45.431Z,2.22
2022-09-15T10:55:51.648Z,2.20
2022-09-15T10:58:48.978Z,2.10
2022-09-15T11:01:30.405Z,2.00
2022-09-15T11:04:27.605Z,1.88
2022-09-15T11:07:24.569Z,1.90
2022-09-15T11:10:00.583Z,3.08
2022-09-15T11:12:44.976Z,2.03
2022-09-15T11:15:29.474Z,2.30
2022-09-15T11:18:16.737Z,2.50
2022-09-15T11:21:10.971Z,2.88
2022-09-15T11:23:45.888Z,3.40
2022-09-15T11:26:15.997Z,3.40
2022-09-15T11:28:49.119Z,3.72
2022-09-15T11:31:20.737Z,3.90
2022-09-15T11:33:55.661Z,4.15
2022-09-15T11:36:38.127Z,4.07
2022-09-15T11:39:10.609Z,4.40
2022-09-15T11:41:45.696Z,4.70
2022-09-15T11:44:29.012Z,4.85
2022-09-15T11:47:04.535Z,4.40
2022-09-15T11:49:51.104Z,4.70
2022-09-15T11:52:37.757Z,4.50
2022-09-15T11:55:15.628Z,4.97
2022-09-15T11:57:47.841Z,5.65
2022-09-15T12:00:15.109Z,5.50
2022-09-15T12:03:03.368Z,5.93
2022-09-15T12:05:33.590Z,6.00
2022-09-15T12:08:07.022Z,6.30
2022-09-15T12:10:41.751Z,6.50
2022-09-15T12:13:17.093Z,5.88
2022-09-15T12:15:44.389Z,6.50
2022-09-15T12:18:40.129Z,6.70
2022-09-15T12:21:14.920Z,6.68
2022-09-15T12:24:03.203Z,7.18
2022-09-15T12:26:33.066Z,7.28
2022-09-15T12:29:02.449Z,6.90
2022-09-15T12:31:30.213Z,6.57
2022-09-15T12:34:16.737Z,6.72
2022-09-15T12:36:47.826Z,6.45
2022-09-15T12:39:36.216Z,7.60
2022-09-15T12:42:10.853Z,6.70
2022-09-15T12:44:42.047Z,6.97
2022-09-15T12:47:20.416Z,6.97
2022-09-15T12:49:48.379Z,6.40
2022-09-15T12:52:15.376Z,6.15
2022-09-15T12:54:43.286Z,5.75
2022-09-15T12:57:21.364Z,5.45
2022-09-15T12:59:47.796Z,4.32
2022-09-15T13:02:50.049Z,5.18
2022-09-15T13:05:41.661Z,5.40
2022-09-15T13:08:31.115Z,5.47
2022-09-15T13:11:07.885Z,5.72
2022-09-15T13:14:08.482Z,5.15
2022-09-15T13:16:41.037Z,4.13
2022-09-15T13:19:12.258Z,3.67
2022-09-15T13:21:41.162Z,4.10
2022-09-15T13:24:15.951Z,3.70
2022-09-15T13:26:44.615Z,4.63
2022-09-15T13:29:15.187Z,4.53
2022-09-15T13:31:53.173Z,4.30
2022-09-15T13:35:07.200Z,4.75
2022-09-15T13:41:09.262Z,4.30
2022-09-15T13:43:46.144Z,4.25
2022-09-15T13:46:22.899Z,3.80
2022-09-15T13:49:14.220Z,3.20
2022-09-15T13:51:43.897Z,2.63
2022-09-15T13:54:16.910Z,2.60
2022-09-15T13:56:43.906Z,2.35
2022-09-15T13:59:19.121Z,2.53
2022-09-15T14:01:45.988Z,2.75
2022-09-15T14:04:16.512Z,2.50
2022-09-15T14:06:44.879Z,2.42
2022-09-15T14:09:17.450Z,2.33
2022-09-15T14:11:47.935Z,2.70
2022-09-15T14:14:46.997Z,2.15
2022-09-15T14:19:52.535Z,2.28
2022-09-15T14:22:32.082Z,2.38
2022-09-15T14:25:00.662Z,2.90
2022-09-15T14:27:29.494Z,2.50
2022-09-15T14:29:57.732Z,2.63
2022-09-15T14:32:25.972Z,2.80
2022-09-15T14:34:52.919Z,2.53
2022-09-15T14:37:28.428Z,2.65
2022-09-15T14:39:57.080Z,2.53
2022-09-15T14:42:29.376Z,3.17
2022-09-15T14:47:43.550Z,2.65
2022-09-15T14:50:21.018Z,2.65
2022-09-15T14:52:49.472Z,2.90
2022-09-15T14:55:23.262Z,3.05
2022-09-15T14:58:26.904Z,2.70
2022-09-15T15:00:58.177Z,2.60
2022-09-15T15:03:33.275Z,2.53
2022-09-15T15:06:28.345Z,2.90
2022-09-15T15:09:03.878Z,2.92
2022-09-15T15:11:31.448Z,2.55
2022-09-15T15:13:57.954Z,2.38
2022-09-15T15:16:29.905Z,2.53
2022-09-15T15:18:57.179Z,2.60
2022-09-15T15:21:43.499Z,2.80
2022-09-15T15:24:17.680Z,2.95
2022-09-15T15:26:46.164Z,2.97
2022-09-15T15:29:43.867Z,3.17
2022-09-15T15:32:20.016Z,2.75
2022-09-15T15:34:59.904Z,2.67
2022-09-15T15:37:33.615Z,2.72
2022-09-15T15:40:04.134Z,2.78
2022-09-15T15:42:30.741Z,2.80
2022-09-15T15:45:09.418Z,2.35
2022-09-15T15:47:37.023Z,2.45
2022-09-15T15:50:21.118Z,2.65
2022-09-15T15:52:48.897Z,2.63
2022-09-15T15:55:20.032Z,2.88
2022-09-15T15:57:48.096Z,2.60
2022-09-15T16:00:23.242Z,2.60
2022-09-15T16:02:51.154Z,2.42
2022-09-15T16:05:18.685Z,2.10
2022-09-15T16:07:46.623Z,2.10
2022-09-15T16:10:17.996Z,2.40
2022-09-15T16:12:44.514Z,2.30
2022-09-15T16:15:13.370Z,2.28
2022-09-15T16:17:44.329Z,2.20
2022-09-15T16:20:15.663Z,2.03
2022-09-15T16:22:42.445Z,2.10
2022-09-15T16:25:26.807Z,2.42
2022-09-15T16:27:53.203Z,2.10
2022-09-15T16:30:19.753Z,2.40
2022-09-15T16:32:46.156Z,2.08
2022-09-15T16:35:44.132Z,2.38
2022-09-15T16:38:10.549Z,2.40
2022-09-15T16:40:37.438Z,2.30
2022-09-15T16:43:04.757Z,2.40
2022-09-15T16:45:39.813Z,2.30
2022-09-15T16:48:08.160Z,2.10
2022-09-15T16:50:35.017Z,2.50
2022-09-15T16:53:01.586Z,2.30
2022-09-15T16:55:38.758Z,2.67
2022-09-15T16:58:06.046Z,2.20
2022-09-15T17:00:35.620Z,2.20
2022-09-15T17:03:02.664Z,2.38
2022-09-15T17:05:42.222Z,2.00
2022-09-15T17:08:11.889Z,2.10
2022-09-15T17:10:38.957Z,1.95
2022-09-15T17:13:05.942Z,2.03
2022-09-15T17:15:37.738Z,1.95
2022-09-15T17:18:05.542Z,2.03
2022-09-15T17:20:38.605Z,1.85
2022-09-15T17:23:23.483Z,2.10
2022-09-15T17:25:59.075Z,1.98
2022-09-15T17:28:30.961Z,2.10
2022-09-15T17:31:02.012Z,2.58
2022-09-15T17:33:29.549Z,2.20
2022-09-15T17:35:55.983Z,2.03
2022-09-15T17:38:23.028Z,2.50
2022-09-15T17:40:49.921Z,2.10
2022-09-15T17:43:22.031Z,2.10
2022-09-15T17:45:49.404Z,2.53
2022-09-15T17:48:16.355Z,2.67
2022-09-15T17:50:43.517Z,2.20
2022-09-15T17:53:15.334Z,2.65
2022-09-15T17:55:42.109Z,2.25
2022-09-15T17:58:08.628Z,2.15
2022-09-15T18:00:36.965Z,2.10
2022-09-15T18:03:10.681Z,2.10
2022-09-15T18:05:37.808Z,2.60
2022-09-15T18:08:05.821Z,2.30
2022-09-15T18:10:34.348Z,2.53
2022-09-15T18:13:01.767Z,2.35
2022-09-15T18:15:30.078Z,2.25
2022-09-15T18:18:03.783Z,1.93
2022-09-15T18:20:31.986Z,2.17
2022-09-15T18:22:58.953Z,1.73
2022-09-15T18:25:34.818Z,2.00
2022-09-15T18:28:01.983Z,2.72
2022-09-15T18:30:31.366Z,1.90
2022-09-15T18:32:58.148Z,2.17
2022-09-15T18:35:25.160Z,2.00
2022-09-15T18:37:59.349Z,2.10
2022-09-15T18:40:27.085Z,2.20
2022-09-15T18:42:54.048Z,1.83
2022-09-15T18:45:21.791Z,2.65
2022-09-15T18:47:49.356Z,1.75
2022-09-15T18:50:17.448Z,2.15
2022-09-15T18:52:44.451Z,2.08
2022-09-15T18:55:18.018Z,2.05
2022-09-15T18:57:44.840Z,2.40
2022-09-15T19:00:14.492Z,2.33
2022-09-15T19:02:40.990Z,2.17
2022-09-15T19:05:08.075Z,2.22
2022-09-15T19:07:34.513Z,2.30
2022-09-15T19:10:01.609Z,2.22
2022-09-15T19:12:28.356Z,2.50
2022-09-15T19:14:54.767Z,2.40
2022-09-15T19:17:21.529Z,2.20
2022-09-15T19:19:48.112Z,2.25
2022-09-15T19:22:14.725Z,2.53
2022-09-15T19:24:41.150Z,2.40
2022-09-15T19:27:08.912Z,2.45
2022-09-15T19:29:36.179Z,2.40
2022-09-15T19:32:08.789Z,2.30
2022-09-15T19:34:35.977Z,3.45
2022-09-15T19:37:04.871Z,3.30
2022-09-15T19:39:34.762Z,3.00
2022-09-15T19:42:01.173Z,2.60
2022-09-15T19:44:27.617Z,3.10
2022-09-15T19:46:54.077Z,3.05
2022-09-15T19:49:21.817Z,2.50
2022-09-15T19:51:54.898Z,2.60
2022-09-15T19:54:27.001Z,2.40
2022-09-15T19:56:53.560Z,2.67
2022-09-15T19:59:20.467Z,2.60
2022-09-15T20:01:47.461Z,2.38
2022-09-15T20:04:14.709Z,2.78
2022-09-15T20:06:41.523Z,2.30
2022-09-15T20:09:08.725Z,2.42
2022-09-15T20:11:35.872Z,2.97
2022-09-15T20:14:02.843Z,2.22
2022-09-15T20:16:29.785Z,2.00
2022-09-15T20:18:56.578Z,2.47
2022-09-15T20:21:39.085Z,2.78
2022-09-15T20:24:12.372Z,2.58
2022-09-15T20:26:38.835Z,2.60
2022-09-15T20:29:05.294Z,2.50
2022-09-15T20:31:34.563Z,2.47
2022-09-15T20:36:33.025Z,2.30
2022-09-15T20:39:00.894Z,2.40
2022-09-15T20:41:28.324Z,2.30
2022-09-15T20:43:55.137Z,2.15
2022-09-15T20:46:22.686Z,2.17
2022-09-15T20:48:50.978Z,2.00
2022-09-15T20:51:25.464Z,2.00
2022-09-15T20:53:53.574Z,2.05
2022-09-15T20:56:24.587Z,2.00
2022-09-15T20:58:55.163Z,2.40
2022-09-15T21:01:31.556Z,2.10
2022-09-15T21:03:58.087Z,1.98
2022-09-15T21:06:26.452Z,1.92
2022-09-15T21:08:53.863Z,2.10
2022-09-15T21:11:21.259Z,1.85
2022-09-15T21:13:48.597Z,1.65
2022-09-15T21:16:20.403Z,1.92
2022-09-15T21:18:47.275Z,1.65
2022-09-15T21:21:15.749Z,2.22
2022-09-15T21:23:44.527Z,2.03
2022-09-15T21:26:13.518Z,1.80
2022-09-15T21:28:40.187Z,2.13
2022-09-15T21:31:10.255Z,1.80
2022-09-15T21:33:37.383Z,1.80
2022-09-15T21:36:06.152Z,2.00
2022-09-15T21:38:37.336Z,1.73
2022-09-15T21:41:04.488Z,1.98
2022-09-15T21:43:32.725Z,1.90
2022-09-15T21:45:59.167Z,1.88
2022-09-15T21:48:27.133Z,2.05
2022-09-15T21:50:54.122Z,1.80
2022-09-15T21:53:20.970Z,2.20
2022-09-15T21:55:50.340Z,2.00
2022-09-15T22:00:47.706Z,2.03
2022-09-15T22:03:24.752Z,1.90
2022-09-15T22:05:51.737Z,2.00
2022-09-15T22:08:18.239Z,2.05
2022-09-15T22:10:44.782Z,2.53
2022-09-15T22:13:11.848Z,2.03
2022-09-15T22:15:38.359Z,2.10
2022-09-15T22:18:05.111Z,2.13
2022-09-15T22:20:31.875Z,2.05
2022-09-15T22:23:01.328Z,1.98
2022-09-15T22:25:28.878Z,1.98
2022-09-15T22:27:55.355Z,1.80
2022-09-15T22:30:21.788Z,1.83
2022-09-15T22:32:48.206Z,2.35
2022-09-15T22:35:14.687Z,1.98
2022-09-15T22:37:41.118Z,1.80
2022-09-15T22:40:08.094Z,1.90
2022-09-15T22:42:34.670Z,1.92
2022-09-15T22:45:01.075Z,1.67
2022-09-15T22:47:27.480Z,2.30
2022-09-15T22:49:53.973Z,1.83
2022-09-15T22:52:21.097Z,1.83
2022-09-15T22:54:47.514Z,2.17
2022-09-15T22:57:13.930Z,1.70
2022-09-15T22:59:40.330Z,2.13
2022-09-15T23:02:06.777Z,2.00
2022-09-15T23:04:33.208Z,1.90
2022-09-15T23:06:59.631Z,1.88
2022-09-15T23:09:26.330Z,2.17
2022-09-15T23:11:52.771Z,1.83
2022-09-15T23:14:19.177Z,1.70
2022-09-15T23:16:45.622Z,1.75
2022-09-15T23:19:13.313Z,1.63
2022-09-15T23:21:40.087Z,1.95
2022-09-15T23:24:06.748Z,1.60
2022-09-15T23:26:33.226Z,1.90
2022-09-15T23:28:59.664Z,1.60
2022-09-15T23:31:26.124Z,1.70
2022-09-15T23:33:52.576Z,1.80
2022-09-15T23:36:19.465Z,1.83
2022-09-15T23:38:46.648Z,1.70
2022-09-15T23:41:14.208Z,1.85
2022-09-15T23:43:41.043Z,1.60
2022-09-15T23:46:07.899Z,1.40
2022-09-15T23:48:34.617Z,1.80
2022-09-15T23:51:01.454Z,1.88
2022-09-15T23:53:28.612Z,1.50
2022-09-15T23:55:57.112Z,1.85
2022-09-15T23:58:23.533Z,1.55
